Flight Track Log - Related Links

Times and Time Zones

All times are in EDT time to prevent confusion due to time zone crossing. See the PDT4226 flight status page for this flight to view local times or setup timezone preferences in your user account.

Time Position Orientation Groundspeed Altitude Reporting Facility
EDT Latitude Longitude Course Direction KTS MPH feet Rate Location/Type
Thu 12:38:22 PM 39.9000 -75.2333 311° West 119 137 600  Level Philadelphia TRACON
Thu 12:39:22 PM 39.9167 -75.2833 294° West 146 168 1,900 1,400 Climbing Philadelphia TRACON
Thu 12:40:22 PM 39.9333 -75.3333 294° West 165 190 3,400 1,368 Climbing Philadelphia TRACON
Thu 12:41:00 PM 40.1184 -75.4684 323° Northwest  Level FlightAware Approximate
Thu 12:41:16 PM 39.9500 -75.3833 294° West 169 194 4,500  Level Philadelphia TRACON
Thu 12:42:00 PM 40.1817 -75.5226 311° West  Level FlightAware Approximate
Thu 12:42:08 PM 39.9606 -75.4453 283° West 165 190 5,700  Level New York Center
Thu 12:43:00 PM 40.2396 -75.5843 311° West  Level FlightAware Approximate
Thu 12:43:10 PM 39.9844 -75.4739 317° Northwest 169 194 7,000  Level New York Center
Thu 12:44:08 PM 40.0400 -75.4858 351° North 176 203 8,500 1,017 Climbing New York Center
Thu 12:45:08 PM 40.0767 -75.5100 333° Northwest 194 223 9,000 248 Climbing New York Center
Thu 12:46:09 PM 40.1422 -75.5389 341° North 224 258 9,000  Level New York Center
Thu 12:47:10 PM 40.1958 -75.5536 348° North 224 258 9,000 50 Level New York Center
Thu 12:48:09 PM 40.2567 -75.5931 334° Northwest 217 250 9,100 51 Climbing New York Center
Thu 12:49:08 PM 40.2939 -75.6556 308° West 211 243 9,100 492 Level New York Center
Thu 12:50:11 PM 40.3267 -75.7150 306° West 211 243 10,100 793 Climbing New York Center
Thu 12:51:09 PM 40.3603 -75.7611 314° West 194 223 10,700 667 Climbing New York Center
Thu 12:52:08 PM 40.4089 -75.7944 332° Northwest 194 223 11,400 800 Climbing New York Center
Thu 12:53:09 PM 40.4594 -75.8308 331° Northwest 194 223 12,300 787 Climbing New York Center
Thu 12:54:10 PM 40.5036 -75.8697 326° Northwest 194 223 13,000 706 Climbing New York Center
Thu 12:55:08 PM 40.5522 -75.9033 332° Northwest 194 223 13,700 500 Climbing New York Center
Thu 12:56:10 PM 40.6028 -75.9372 333° Northwest 204 235 14,000 150 Climbing New York Center
Thu 12:57:08 PM 40.6572 -75.9797 329° Northwest 209 241 14,000  Level New York Center
Thu 12:58:09 PM 40.7136 -76.0222 330° Northwest 224 258 14,000  Level New York Center
Thu 12:59:08 PM 40.7683 -76.0592 333° Northwest 235 270 14,000  Level New York Center
Thu 01:00:09 PM 40.8247 -76.1019 330° Northwest 235 270 14,000  Level New York Center
Thu 01:01:08 PM 40.8914 -76.1483 332° Northwest 235 270 14,000  Level New York Center
Thu 01:02:08 PM 40.9497 -76.1917 331° Northwest 240 276 14,000  Level New York Center
Thu 01:03:10 PM 41.0083 -76.2292 334° Northwest 240 276 14,000  Level New York Center
Thu 01:04:08 PM 41.0778 -76.2183 North 235 270 14,000  Level New York Center
Thu 01:05:09 PM 41.1492 -76.2075 North 244 281 14,000  Level New York Center
Thu 01:06:08 PM 41.2136 -76.2072 360° North 252 290 14,000  Level New York Center
Thu 01:07:09 PM 41.2847 -76.2047 North 257 296 14,000  Level New York Center
Thu 01:08:09 PM 41.3639 -76.2000 North 257 296 14,000 -99 Level New York Center
Thu 01:09:10 PM 41.4350 -76.1975 North 257 296 13,800 -458 Descending New York Center
Thu 01:10:07 PM 41.5103 -76.1869 North 257 296 13,100 -763 Descending New York Center
Thu 01:11:08 PM 41.5814 -76.1817 North 272 313 12,300 -836 Descending New York Center
Thu 01:12:09 PM 41.6650 -76.1772 North 277 319 11,400 -836 Descending New York Center
Thu 01:13:10 PM 41.7400 -76.1722 North 277 319 10,600 -1,100 Descending New York Center
Thu 01:14:09 PM 41.8078 -76.1525 12° North 267 307 9,200 -1,550 Descending New York Center
Thu 01:15:10 PM 41.8414 -76.0942 52° Northeast 220 253 7,500 -1,750 Descending New York Center
Thu 01:16:09 PM 41.8817 -76.0333 48° Northeast 213 245 5,700 -1,487 Descending New York Center
Thu 01:17:07 PM 41.9242 -75.9669 49° Northeast 207 238 4,600 -850 Descending New York Center
Thu 01:18:09 PM 41.9764 -75.9181 35° Northeast 214 246 4,000 -298 Descending New York Center
Thu 01:19:08 PM 42.0356 -75.8975 14° North 214 246 4,000 -149 Level New York Center
Thu 01:20:10 PM 42.0981 -75.8939 North 219 252 3,700 -550 Descending New York Center
Thu 01:21:08 PM 42.1406 -75.9253 331° Northwest 177 204 2,900 -756 Descending New York Center
Thu 01:22:09 PM 42.1725 -75.9528 327° Northwest 163 188 2,200 -492 Descending New York Center
Thu 01:23:10 PM 42.2069 -75.9753 334° Northwest 153 176 1,900 -295 Descending New York Center

Login

Don't have an account? Register now (free) for customized features, flight alerts, and more!